createdAt,value
2018-03-20T00:01:18.909Z,5.9
2018-03-20T00:02:46.294Z,6.5
2018-03-20T00:04:06.128Z,6.4
2018-03-20T00:05:25.992Z,6.2
2018-03-20T00:06:58.440Z,6.5
2018-03-20T00:08:18.250Z,6.5
2018-03-20T00:09:43.104Z,6.4
2018-03-20T00:11:02.952Z,6.5
2018-03-20T00:12:22.816Z,6.3
2018-03-20T00:13:45.213Z,6.4
2018-03-20T00:15:12.601Z,6.2
2018-03-20T00:16:32.387Z,6.4
2018-03-20T00:17:54.778Z,6.4
2018-03-20T00:19:29.745Z,6.5
2018-03-20T00:20:49.542Z,6
2018-03-20T00:22:09.379Z,6.2
2018-03-20T00:23:31.691Z,6.2
2018-03-20T00:24:51.528Z,6.2
2018-03-20T00:26:11.324Z,6.2
2018-03-20T00:27:33.680Z,6
2018-03-20T00:28:53.477Z,6
2018-03-20T00:30:15.834Z,6.1
2018-03-20T00:31:35.655Z,6
2018-03-20T00:32:55.473Z,5.9
2018-03-20T00:34:15.286Z,6
2018-03-20T00:35:35.161Z,6.1
2018-03-20T00:36:54.990Z,5.8
2018-03-20T00:38:22.411Z,6
2018-03-20T00:39:52.381Z,6.1
2018-03-20T00:41:19.757Z,5.9
2018-03-20T00:42:44.670Z,6.3
2018-03-20T00:44:04.477Z,6.1
2018-03-20T00:45:24.275Z,6
2018-03-20T00:46:46.597Z,6
2018-03-20T00:48:06.392Z,6
2018-03-20T00:49:26.184Z,5.9
2018-03-20T00:50:46.017Z,5.9
2018-03-20T00:52:08.366Z,5.8
2018-03-20T00:53:28.184Z,6
2018-03-20T00:54:47.985Z,6
2018-03-20T00:56:10.383Z,5.6
2018-03-20T00:57:30.257Z,5.4
2018-03-20T00:58:52.585Z,5.3
2018-03-20T01:00:12.379Z,5.2
2018-03-20T01:01:32.176Z,5.3
2018-03-20T01:02:57.033Z,5.4
2018-03-20T01:04:24.476Z,5.5
2018-03-20T01:05:51.886Z,5.5
2018-03-20T01:07:11.717Z,5.6
2018-03-20T01:08:46.750Z,5.6
2018-03-20T01:10:06.575Z,5.4
2018-03-20T01:11:28.904Z,5.3
2018-03-20T01:12:53.764Z,5.4
2018-03-20T01:14:13.569Z,5.3
2018-03-20T01:15:33.402Z,5.4
2018-03-20T01:16:53.192Z,5.1
2018-03-20T01:18:12.985Z,5.6
2018-03-20T01:19:40.398Z,5.4
2018-03-20T01:21:00.225Z,5.5
2018-03-20T01:22:20.055Z,5.6
2018-03-20T01:23:42.385Z,5.7
2018-03-20T01:25:04.752Z,5.1
2018-03-20T01:26:42.304Z,5.2
2018-03-20T01:28:02.130Z,5.4
2018-03-20T01:29:24.448Z,5.3
2018-03-20T01:30:46.774Z,5.1
2018-03-20T01:32:06.618Z,4.5
2018-03-20T01:33:28.996Z,5
2018-03-20T01:34:48.821Z,5.4
2018-03-20T01:36:21.277Z,5.6
2018-03-20T01:37:58.775Z,6
2018-03-20T01:39:21.112Z,6.2
2018-03-20T01:40:40.909Z,5.8
2018-03-20T01:42:05.808Z,5.9
2018-03-20T01:43:25.663Z,5.5
2018-03-20T01:44:48.023Z,5.7
2018-03-20T01:46:12.923Z,5.7
2018-03-20T01:47:40.338Z,5.8
2018-03-20T01:49:00.208Z,5.8
2018-03-20T01:50:20.027Z,5.7
2018-03-20T01:51:39.846Z,5.7
2018-03-20T01:53:02.166Z,5.7
2018-03-20T01:54:32.106Z,6
2018-03-20T01:55:54.479Z,5.8
2018-03-20T01:57:14.273Z,5.6
2018-03-20T01:58:36.598Z,5.9
2018-03-20T01:59:58.978Z,5.8
2018-03-20T02:01:21.299Z,5.7
2018-03-20T02:02:43.675Z,5.9
2018-03-20T02:04:06.024Z,6
2018-03-20T02:05:30.875Z,6
2018-03-20T02:06:55.759Z,6
2018-03-20T02:08:15.584Z,6
2018-03-20T02:09:35.427Z,6
2018-03-20T02:10:57.760Z,6
2018-03-20T02:12:22.619Z,5.9
2018-03-20T02:13:47.478Z,6
2018-03-20T02:15:09.836Z,5.8
2018-03-20T02:16:29.687Z,5.2
2018-03-20T02:17:49.533Z,5.3
2018-03-20T02:19:09.365Z,5.2
2018-03-20T02:20:29.166Z,5.1
2018-03-20T02:21:54.022Z,5.1
2018-03-20T02:23:16.361Z,4.7
2018-03-20T02:24:36.179Z,5.3
2018-03-20T02:25:55.978Z,5.1
2018-03-20T02:27:18.308Z,5.3
2018-03-20T02:28:38.129Z,5.4
2018-03-20T02:29:57.926Z,5.3
2018-03-20T02:31:20.277Z,5.4
2018-03-20T02:32:40.095Z,4.9
2018-03-20T02:34:02.430Z,5.2
2018-03-20T02:35:22.237Z,5.1
2018-03-20T02:36:42.044Z,5.5
2018-03-20T02:38:06.901Z,5.3
2018-03-20T02:39:26.700Z,4.9
2018-03-20T02:40:54.095Z,5.2
2018-03-20T02:42:13.892Z,5.4
2018-03-20T02:43:38.760Z,5.4
2018-03-20T02:44:58.557Z,5.2
2018-03-20T02:46:18.413Z,5.2
2018-03-20T02:47:53.387Z,5
2018-03-20T02:49:13.220Z,5.2
2018-03-20T02:50:38.065Z,5.1
2018-03-20T02:52:00.424Z,5.3
2018-03-20T02:53:22.753Z,5.3
2018-03-20T02:54:42.577Z,5.3
2018-03-20T02:56:02.375Z,5.4
2018-03-20T02:57:22.168Z,5.1
2018-03-20T02:58:44.574Z,5.1
2018-03-20T03:00:04.405Z,5.2
2018-03-20T03:01:26.795Z,5.4
2018-03-20T03:02:54.171Z,5
2018-03-20T03:04:16.551Z,5.2
2018-03-20T03:05:38.865Z,4.7
2018-03-20T03:06:58.685Z,4.4
2018-03-20T03:08:18.483Z,4.7
2018-03-20T03:09:38.309Z,4.6
2018-03-20T03:11:05.683Z,4.6
2018-03-20T03:12:28.053Z,4.5
2018-03-20T03:13:47.854Z,4.5
2018-03-20T03:15:07.651Z,4.5
2018-03-20T03:16:32.537Z,4.5
2018-03-20T03:17:52.339Z,4.3
2018-03-20T03:19:12.179Z,4.3
2018-03-20T03:20:31.984Z,4.3
2018-03-20T03:21:51.776Z,2.7
2018-03-20T03:23:11.581Z,4.2
2018-03-20T03:24:31.387Z,4.9
2018-03-20T03:25:53.715Z,4.7
2018-03-20T03:27:13.511Z,5
2018-03-20T03:28:33.309Z,4.8
2018-03-20T03:29:55.665Z,4.6
2018-03-20T03:31:23.051Z,4.6
2018-03-20T03:32:42.857Z,4.4
2018-03-20T03:34:02.657Z,4.5
2018-03-20T03:35:32.558Z,4.4
2018-03-20T03:36:52.360Z,4.4
2018-03-20T03:38:12.155Z,4.5
2018-03-20T03:39:31.951Z,4.3
2018-03-20T03:40:51.767Z,4.1
2018-03-20T03:42:11.598Z,4.1
2018-03-20T03:43:33.926Z,4.2
2018-03-20T03:44:53.724Z,4.2
2018-03-20T03:46:13.550Z,4.1
2018-03-20T03:47:33.343Z,4.3
2018-03-20T03:48:55.669Z,4.4
2018-03-20T03:50:15.518Z,4.4
2018-03-20T03:51:35.366Z,4.1
2018-03-20T03:52:55.191Z,4
2018-03-20T03:54:15.057Z,3.9
2018-03-20T03:55:37.383Z,4.1
2018-03-20T03:56:57.173Z,4
2018-03-20T03:58:16.998Z,4.1
2018-03-20T03:59:41.850Z,3.9
2018-03-20T04:01:01.656Z,4.1
2018-03-20T04:02:21.461Z,3.8
2018-03-20T04:03:41.263Z,4
2018-03-20T04:05:01.069Z,4.2
2018-03-20T04:06:28.504Z,4.3
2018-03-20T04:07:48.334Z,4.1
2018-03-20T04:09:10.657Z,4.2
2018-03-20T04:10:30.472Z,4.5
2018-03-20T04:11:50.268Z,4.5
2018-03-20T04:13:10.100Z,4.2
2018-03-20T04:14:29.932Z,4
2018-03-20T04:15:49.798Z,4.1
2018-03-20T04:17:17.187Z,4.2
2018-03-20T04:18:42.083Z,4.3
2018-03-20T04:20:01.876Z,4.4
2018-03-20T04:21:21.687Z,4
2018-03-20T04:22:44.019Z,4.4
2018-03-20T04:24:03.841Z,4.4
2018-03-20T04:25:23.695Z,4.8
2018-03-20T04:26:51.141Z,4.7
2018-03-20T04:28:13.456Z,4.7
2018-03-20T04:29:33.287Z,4
2018-03-20T04:30:58.154Z,3.9
2018-03-20T04:32:23.023Z,5.1
2018-03-20T04:33:42.818Z,4.9
2018-03-20T04:35:02.615Z,5
2018-03-20T04:36:27.487Z,4.9
2018-03-20T04:37:47.289Z,5
2018-03-20T04:39:07.085Z,5.2
2018-03-20T04:40:29.438Z,5.4
2018-03-20T04:41:49.282Z,5
2018-03-20T04:43:09.102Z,4.9
2018-03-20T04:44:31.432Z,4.7
2018-03-20T04:45:51.232Z,5
2018-03-20T04:47:11.035Z,4.9
2018-03-20T04:48:30.837Z,5.2
2018-03-20T04:49:50.651Z,4.6
2018-03-20T04:51:15.520Z,5.2
2018-03-20T04:52:40.373Z,5.1
2018-03-20T04:54:02.764Z,4.7
2018-03-20T04:55:25.193Z,3.8
2018-03-20T04:56:45.021Z,4
2018-03-20T04:58:07.351Z,4.6
2018-03-20T04:59:34.760Z,2.6
2018-03-20T05:00:54.583Z,4.2
2018-03-20T05:02:19.488Z,4.8
2018-03-20T05:03:39.311Z,4.6
2018-03-20T05:04:59.132Z,4.6
2018-03-20T05:06:21.454Z,4.6
2018-03-20T05:07:41.255Z,5
2018-03-20T05:09:06.159Z,5
2018-03-20T05:10:25.957Z,5.3
2018-03-20T05:11:48.288Z,5.3
2018-03-20T05:13:08.095Z,5.7
2018-03-20T05:14:30.418Z,5.7
2018-03-20T05:15:52.755Z,5.4
2018-03-20T05:17:12.548Z,5.7
2018-03-20T05:18:37.405Z,5.3
2018-03-20T05:19:59.763Z,5.3
2018-03-20T05:21:27.151Z,5.1
2018-03-20T05:22:49.493Z,5.4
2018-03-20T05:24:11.831Z,4.6
2018-03-20T05:25:56.956Z,5.1
2018-03-20T05:27:16.749Z,5.3
2018-03-20T05:28:39.103Z,5.4
2018-03-20T05:29:58.986Z,5.6
2018-03-20T05:31:18.862Z,4.9
2018-03-20T05:32:38.686Z,5
2018-03-20T05:33:58.538Z,5.2
2018-03-20T05:35:20.867Z,5.2
2018-03-20T05:36:40.662Z,5.1
2018-03-20T05:38:02.985Z,5.5
2018-03-20T05:39:22.788Z,4
2018-03-20T05:40:42.585Z,3.7
2018-03-20T05:42:07.455Z,3.5
2018-03-20T05:43:27.291Z,3.7
2018-03-20T05:44:47.103Z,3.7
2018-03-20T05:46:14.523Z,3.9
2018-03-20T05:47:34.354Z,3.9
2018-03-20T05:48:54.237Z,4.7
2018-03-20T05:50:14.062Z,5
2018-03-20T05:51:33.891Z,4.8
2018-03-20T05:52:58.761Z,4.7
2018-03-20T05:54:18.560Z,4.6
2018-03-20T05:55:43.491Z,4.7
2018-03-20T05:57:15.999Z,5
2018-03-20T05:58:35.813Z,4.8
2018-03-20T05:59:58.136Z,4.4
2018-03-20T06:01:17.939Z,4.5
2018-03-20T06:02:37.742Z,3.9
2018-03-20T06:04:00.075Z,4.4
2018-03-20T06:05:19.879Z,4.2
2018-03-20T06:06:39.681Z,4.2
2018-03-20T06:07:59.564Z,3.9
2018-03-20T06:09:26.948Z,3.8
2018-03-20T06:10:46.764Z,3.9
2018-03-20T06:12:11.615Z,3.7
2018-03-20T06:13:36.479Z,4.3
2018-03-20T06:15:03.930Z,5.2
2018-03-20T06:16:23.785Z,5.8
2018-03-20T06:17:43.624Z,5.6
2018-03-20T06:19:11.006Z,5.5
2018-03-20T06:20:30.802Z,5.6
2018-03-20T06:21:50.620Z,5.6
2018-03-20T06:23:10.468Z,5.6
2018-03-20T06:24:30.264Z,5.3
2018-03-20T06:25:50.065Z,5.3
2018-03-20T06:27:14.926Z,5.5
2018-03-20T06:28:34.722Z,5.3
2018-03-20T06:29:57.086Z,5.3
2018-03-20T06:31:19.435Z,5.3
2018-03-20T06:32:44.335Z,5.5
2018-03-20T06:34:04.157Z,5.3
2018-03-20T06:35:26.530Z,5.1
2018-03-20T06:37:06.600Z,5
2018-03-20T06:38:28.962Z,5.2
2018-03-20T06:39:48.814Z,5.3
2018-03-20T06:41:08.634Z,5.3
2018-03-20T06:42:28.469Z,5.1
2018-03-20T06:43:48.273Z,5.4
2018-03-20T06:45:15.662Z,5.5
2018-03-20T06:46:35.521Z,5.6
2018-03-20T06:47:55.317Z,5.5
2018-03-20T06:49:15.133Z,5.4
2018-03-20T06:50:37.506Z,5.4
2018-03-20T06:52:04.902Z,5.3
2018-03-20T06:53:24.696Z,5.6
2018-03-20T06:54:52.117Z,5.3
2018-03-20T06:56:22.036Z,4.9
2018-03-20T06:57:41.874Z,5.3
2018-03-20T06:59:06.739Z,5.5
2018-03-20T07:00:36.691Z,5.4
2018-03-20T07:01:56.496Z,5.7
2018-03-20T07:03:16.287Z,5.5
2018-03-20T07:04:36.103Z,5.3
2018-03-20T07:05:58.469Z,5.5
2018-03-20T07:07:18.270Z,5.4
2018-03-20T07:08:43.198Z,5.2
2018-03-20T07:10:03.044Z,5.1
2018-03-20T07:11:22.836Z,5.4
2018-03-20T07:12:42.680Z,5.3
2018-03-20T07:14:02.498Z,4.8
2018-03-20T07:15:27.351Z,5.1
2018-03-20T07:16:54.760Z,5
2018-03-20T07:18:27.211Z,4.7
2018-03-20T07:19:47.044Z,4.8
2018-03-20T07:21:06.852Z,5.3
2018-03-20T07:22:26.658Z,5
2018-03-20T07:23:54.100Z,4.9
2018-03-20T07:25:16.422Z,5.2
2018-03-20T07:26:36.267Z,5.1
2018-03-20T07:27:56.089Z,5
2018-03-20T07:29:23.517Z,5.1
2018-03-20T07:30:43.345Z,4.9
2018-03-20T07:32:03.148Z,4.8
2018-03-20T07:33:35.661Z,4.8
2018-03-20T07:35:03.048Z,5.1
2018-03-20T07:36:22.872Z,5.3
2018-03-20T07:37:50.305Z,5.2
2018-03-20T07:39:10.099Z,5.2
2018-03-20T07:40:37.523Z,5.2
2018-03-20T07:41:57.393Z,5.1
2018-03-20T07:43:17.193Z,4.9
2018-03-20T07:44:39.551Z,4.9
2018-03-20T07:45:59.345Z,5.3
2018-03-20T07:47:19.168Z,4.9
2018-03-20T07:48:38.994Z,5
2018-03-20T07:50:01.351Z,4.8
2018-03-20T07:51:21.206Z,4.8
2018-03-20T07:52:41.004Z,4.8
2018-03-20T07:54:10.971Z,4.8
2018-03-20T07:55:35.823Z,4.7
2018-03-20T07:57:08.307Z,4.7
2018-03-20T07:58:33.235Z,4.9
2018-03-20T07:59:55.564Z,4.6
2018-03-20T08:01:15.370Z,3.8
2018-03-20T08:02:37.694Z,4
2018-03-20T08:04:05.094Z,3.8
2018-03-20T08:05:27.467Z,3.9
2018-03-20T08:06:47.278Z,4.6
2018-03-20T08:08:07.080Z,5.3
2018-03-20T08:09:29.408Z,5.9
2018-03-20T08:10:49.261Z,6.7
2018-03-20T08:12:19.191Z,6.2
2018-03-20T08:13:44.132Z,6.4
2018-03-20T08:15:09.046Z,6.3
2018-03-20T08:16:31.401Z,6.1
2018-03-20T08:17:53.797Z,5.9
2018-03-20T08:19:13.675Z,6
2018-03-20T08:20:36.014Z,6.1
2018-03-20T08:21:55.809Z,5.9
2018-03-20T08:23:15.603Z,5.4
2018-03-20T08:24:37.953Z,5.2
2018-03-20T08:26:00.343Z,5.4
2018-03-20T08:27:20.201Z,5.7
2018-03-20T08:28:42.568Z,6.2
2018-03-20T08:30:07.463Z,6.6
2018-03-20T08:31:27.257Z,6.4
2018-03-20T08:32:47.056Z,6.8
2018-03-20T08:34:11.927Z,7
2018-03-20T08:35:34.249Z,7.2
2018-03-20T08:36:54.044Z,7
2018-03-20T08:38:21.444Z,7.8
2018-03-20T08:39:43.795Z,7.8
2018-03-20T08:41:03.611Z,7.9
2018-03-20T08:42:28.530Z,7.7
2018-03-20T08:43:50.906Z,7.2
2018-03-20T08:45:13.252Z,7.1
2018-03-20T08:46:33.076Z,7.5
2018-03-20T08:47:57.948Z,7.3
2018-03-20T08:49:22.869Z,7.1
2018-03-20T08:50:42.707Z,7.7
2018-03-20T08:52:02.498Z,7.7
2018-03-20T08:53:22.325Z,7.4
2018-03-20T08:54:44.668Z,7.6
2018-03-20T08:56:04.465Z,7.3
2018-03-20T08:57:24.265Z,7.4
2018-03-20T08:58:44.089Z,7.4
2018-03-20T09:00:06.406Z,7.3
2018-03-20T09:01:31.273Z,7.3
2018-03-20T09:02:51.074Z,7.3
2018-03-20T09:04:18.523Z,7.5
2018-03-20T09:05:38.370Z,7.5
2018-03-20T09:06:58.243Z,7.4
2018-03-20T09:08:25.646Z,7.2
2018-03-20T09:09:48.006Z,7.1
2018-03-20T09:11:07.840Z,7.2
2018-03-20T09:12:27.746Z,7.1
2018-03-20T09:13:50.159Z,7.1
2018-03-20T09:15:15.076Z,7
2018-03-20T09:16:34.879Z,6.9
2018-03-20T09:17:54.758Z,7
2018-03-20T09:19:14.563Z,7
2018-03-20T09:20:34.360Z,6.9
2018-03-20T09:21:59.217Z,6.9
2018-03-20T09:23:26.658Z,6.9
2018-03-20T09:24:46.444Z,6.9
2018-03-20T09:26:08.814Z,6.9
2018-03-20T09:27:31.137Z,6.9
2018-03-20T09:28:50.953Z,6.8
2018-03-20T09:30:10.753Z,6.8
2018-03-20T09:31:30.547Z,6.9
2018-03-20T09:32:55.399Z,6.8
2018-03-20T09:34:20.245Z,6.9
2018-03-20T09:35:40.084Z,6.9
2018-03-20T09:36:59.886Z,6.9
2018-03-20T09:38:19.687Z,6.9
2018-03-20T09:39:39.478Z,6.9
2018-03-20T09:41:01.802Z,6.8
2018-03-20T09:42:26.715Z,6.8
2018-03-20T09:43:49.103Z,6.7
2018-03-20T09:45:11.496Z,7
2018-03-20T09:46:31.299Z,7
2018-03-20T09:47:51.087Z,7
2018-03-20T09:49:13.487Z,7.3
2018-03-20T09:50:40.936Z,7
2018-03-20T09:52:00.798Z,7
2018-03-20T09:53:23.194Z,7.3
2018-03-20T09:54:43.021Z,6.9
2018-03-20T09:56:02.844Z,7
2018-03-20T09:57:22.697Z,7.4
2018-03-20T09:58:42.501Z,7.4
2018-03-20T10:00:09.943Z,7.3
2018-03-20T10:01:29.779Z,7.7
2018-03-20T10:02:54.650Z,7.1
2018-03-20T10:04:19.503Z,7.6
2018-03-20T10:05:41.862Z,7.5
2018-03-20T10:07:01.705Z,7.2
2018-03-20T10:08:21.503Z,7
2018-03-20T10:09:41.298Z,6.9
2018-03-20T10:11:01.093Z,7.2
2018-03-20T10:12:20.949Z,7.2
2018-03-20T10:13:40.767Z,7.1
2018-03-20T10:15:05.619Z,7
2018-03-20T10:16:25.408Z,7.5
2018-03-20T10:17:52.833Z,7.6
2018-03-20T10:19:12.653Z,7.5
2018-03-20T10:20:35.030Z,7.5
2018-03-20T10:21:54.826Z,7.4
2018-03-20T10:23:14.644Z,6.9
2018-03-20T10:24:36.981Z,7.3
2018-03-20T10:25:56.783Z,7.3
2018-03-20T10:27:19.111Z,7.2
2018-03-20T10:28:38.905Z,6.8
2018-03-20T10:30:03.784Z,7
2018-03-20T10:31:23.628Z,7.2
2018-03-20T10:32:58.670Z,7.1
2018-03-20T10:34:20.999Z,7
2018-03-20T10:35:43.346Z,6.8
2018-03-20T10:37:03.225Z,7.1
2018-03-20T10:38:23.092Z,6.9
2018-03-20T10:39:42.924Z,6.9
2018-03-20T10:41:02.751Z,7.1
2018-03-20T10:42:27.646Z,7.2
2018-03-20T10:44:02.689Z,7.1
2018-03-20T10:45:27.595Z,6.6
2018-03-20T10:46:52.518Z,6.7
2018-03-20T10:48:12.357Z,6.8
2018-03-20T10:49:32.205Z,6.6
2018-03-20T10:50:52.000Z,6.4
2018-03-20T10:52:11.791Z,6.6
2018-03-20T10:53:34.151Z,6.8
2018-03-20T10:54:53.952Z,6.9
2018-03-20T10:56:18.817Z,7
2018-03-20T10:57:53.806Z,7.2
2018-03-20T10:59:18.679Z,7.4
2018-03-20T11:00:43.539Z,7.1
2018-03-20T11:02:05.863Z,7
2018-03-20T11:03:25.658Z,6.7
2018-03-20T11:04:50.507Z,6.8
2018-03-20T11:06:17.916Z,7
2018-03-20T11:07:37.773Z,6.9
2018-03-20T11:08:57.651Z,7.4
2018-03-20T11:10:22.540Z,7.5
2018-03-20T11:11:52.548Z,7.4
2018-03-20T11:13:17.429Z,7.3
2018-03-20T11:14:37.228Z,7.1
2018-03-20T11:15:57.098Z,7.2
2018-03-20T11:17:16.898Z,7.2
2018-03-20T11:18:39.219Z,7.3
2018-03-20T11:19:59.028Z,7.4
2018-03-20T11:21:21.394Z,7.8
2018-03-20T11:22:43.713Z,7.7
2018-03-20T11:24:16.213Z,7.6
2018-03-20T11:25:41.069Z,7.7
2018-03-20T11:27:10.998Z,7.9
2018-03-20T11:28:30.819Z,8.6
2018-03-20T11:29:55.726Z,8.5
2018-03-20T11:31:15.586Z,8.4
2018-03-20T11:32:35.438Z,8.5
2018-03-20T11:33:55.233Z,9
2018-03-20T11:35:15.080Z,9.1
2018-03-20T11:36:34.932Z,9.2
2018-03-20T11:37:54.725Z,9.2
2018-03-20T11:39:14.521Z,9
2018-03-20T11:40:34.316Z,9.2
2018-03-20T11:41:56.641Z,9.4
2018-03-20T11:43:19.032Z,8.9
2018-03-20T11:44:38.890Z,8.5
2018-03-20T11:46:03.741Z,8.2
2018-03-20T11:47:26.069Z,8.2
2018-03-20T11:48:45.884Z,8.3
2018-03-20T11:50:08.233Z,8.3
2018-03-20T11:51:28.055Z,8.4
2018-03-20T11:52:55.444Z,8.2
2018-03-20T11:54:15.291Z,8.1
2018-03-20T11:55:35.105Z,8.2
2018-03-20T11:56:57.464Z,8.3
2018-03-20T11:58:17.312Z,8.3
2018-03-20T11:59:42.190Z,8.3
2018-03-20T12:01:01.994Z,8
2018-03-20T12:02:26.924Z,7.8
2018-03-20T12:03:49.255Z,7.7
2018-03-20T12:05:11.629Z,7.7
2018-03-20T12:06:39.037Z,7.6
2018-03-20T12:08:06.427Z,7.6
2018-03-20T12:09:26.278Z,7.6
2018-03-20T12:10:46.100Z,7.5
2018-03-20T12:12:05.938Z,7.2
2018-03-20T12:13:25.731Z,6.9
2018-03-20T12:14:45.523Z,7.6
2018-03-20T12:16:10.386Z,7.6
2018-03-20T12:17:30.191Z,6.9
2018-03-20T12:18:49.994Z,6.9
2018-03-20T12:20:12.387Z,6.5
2018-03-20T12:21:47.408Z,7.5
2018-03-20T12:23:07.229Z,7.4
2018-03-20T12:24:27.035Z,6.9
2018-03-20T12:25:46.864Z,7.4
2018-03-20T12:27:06.711Z,6.7
2018-03-20T12:28:34.116Z,7.4
2018-03-20T12:29:53.937Z,7.3
2018-03-20T12:31:18.814Z,7.1
2018-03-20T12:32:38.610Z,7.1
2018-03-20T12:34:00.963Z,6.9
2018-03-20T12:35:23.343Z,7.2
2018-03-20T12:36:55.805Z,7.3
2018-03-20T12:38:15.663Z,7.5
2018-03-20T12:39:35.518Z,7.2
2018-03-20T12:41:02.958Z,7.2
2018-03-20T12:42:22.782Z,7.4
2018-03-20T12:43:42.609Z,7.4
2018-03-20T12:45:02.429Z,7.4
2018-03-20T12:46:22.307Z,7.2
2018-03-20T12:47:44.648Z,7.5
2018-03-20T12:49:04.452Z,7.3
2018-03-20T12:50:26.817Z,7.4
2018-03-20T12:51:49.228Z,7.6
2018-03-20T12:53:26.763Z,7.4
2018-03-20T12:54:49.158Z,7.5
2018-03-20T12:56:08.963Z,7.1
2018-03-20T12:57:33.864Z,6.4
2018-03-20T12:58:53.656Z,4.5
2018-03-20T13:00:21.083Z,4.8
2018-03-20T13:01:48.477Z,5.4
2018-03-20T13:03:08.281Z,5.5
2018-03-20T13:04:28.095Z,6.4
2018-03-20T13:05:47.898Z,6.8
2018-03-20T13:07:10.236Z,7.3
2018-03-20T13:08:32.643Z,7.4
2018-03-20T13:09:52.475Z,7.5
2018-03-20T13:11:12.318Z,7.6
2018-03-20T13:12:32.183Z,7.7
2018-03-20T13:13:57.077Z,8.3
2018-03-20T13:15:19.422Z,8.2
2018-03-20T13:16:39.288Z,8.6
2018-03-20T13:17:59.092Z,8.5
2018-03-20T13:19:18.915Z,9
2018-03-20T13:20:41.294Z,9
2018-03-20T13:22:01.094Z,9.4
2018-03-20T13:23:23.435Z,9.4
2018-03-20T13:24:45.894Z,9.4
2018-03-20T13:26:05.696Z,9.1
2018-03-20T13:27:25.559Z,10
2018-03-20T13:28:45.402Z,10.2
2018-03-20T13:30:10.274Z,9.6
2018-03-20T13:31:30.082Z,9.5
2018-03-20T13:33:00.012Z,9.5
2018-03-20T13:34:19.806Z,9.1
2018-03-20T13:35:39.635Z,9.3
2018-03-20T13:36:59.481Z,8.7
2018-03-20T13:38:42.089Z,9
2018-03-20T13:40:01.955Z,9.4
2018-03-20T13:41:26.835Z,9
2018-03-20T13:42:51.764Z,9.1
2018-03-20T13:44:19.206Z,9
2018-03-20T13:45:41.567Z,9
2018-03-20T13:47:01.415Z,8.8
2018-03-20T13:48:21.209Z,9.1
2018-03-20T13:49:43.556Z,8.9
2018-03-20T13:51:05.898Z,9
2018-03-20T13:52:25.698Z,8.8
2018-03-20T13:53:45.511Z,9.6
2018-03-20T13:55:10.358Z,9.2
2018-03-20T13:56:32.687Z,9.1
2018-03-20T13:57:52.510Z,8.8
2018-03-20T13:59:22.470Z,8.5
2018-03-20T14:00:42.344Z,8.5
2018-03-20T14:02:14.802Z,8.5
2018-03-20T14:03:37.208Z,8.4
2018-03-20T14:04:57.035Z,7.9
2018-03-20T14:06:19.372Z,7.9
2018-03-20T14:07:39.208Z,7.9
2018-03-20T14:09:01.557Z,8
2018-03-20T14:10:23.914Z,7.7
2018-03-20T14:12:01.438Z,7.8
2018-03-20T14:13:26.367Z,7.7
2018-03-20T14:14:51.223Z,7.6
2018-03-20T14:16:11.024Z,5
2018-03-20T14:17:41.003Z,7.4
2018-03-20T14:19:08.399Z,6.7
2018-03-20T14:20:35.848Z,6.1
2018-03-20T14:21:58.182Z,5.3
2018-03-20T14:23:28.153Z,5.5
2018-03-20T14:24:50.483Z,5.9
2018-03-20T14:26:10.282Z,5.7
2018-03-20T14:27:30.082Z,6.8
2018-03-20T14:28:52.473Z,6.9
2018-03-20T14:30:27.500Z,8.2
2018-03-20T14:31:52.383Z,8.3
2018-03-20T14:33:22.334Z,8.4
2018-03-20T14:34:44.710Z,8.7
2018-03-20T14:36:09.567Z,8.6
2018-03-20T14:37:29.366Z,8.5
2018-03-20T14:39:24.621Z,8.8
2018-03-20T14:40:49.547Z,8.9
2018-03-20T14:42:11.898Z,9
2018-03-20T14:43:31.727Z,8.9
2018-03-20T14:44:51.550Z,9.3
2018-03-20T14:46:21.485Z,9.2
2018-03-20T14:47:41.315Z,9.4
2018-03-20T14:49:03.707Z,9.4
2018-03-20T14:50:28.562Z,9.4
2018-03-20T14:51:48.360Z,9.3
2018-03-20T14:53:10.687Z,9.4
2018-03-20T14:54:33.019Z,9.5
2018-03-20T14:55:52.864Z,9.8
2018-03-20T14:57:22.796Z,10.2
2018-03-20T14:58:45.142Z,9.6
2018-03-20T15:00:04.943Z,9.2
2018-03-20T15:01:34.917Z,9.2
2018-03-20T15:02:57.313Z,9.4
2018-03-20T15:04:19.691Z,9.7
2018-03-20T15:05:47.128Z,10.6
2018-03-20T15:07:07.000Z,9.8
2018-03-20T15:08:26.821Z,9.8
2018-03-20T15:09:46.645Z,9.2
2018-03-20T15:11:06.486Z,10.1
2018-03-20T15:12:26.344Z,10.5
2018-03-20T15:13:46.180Z,10.5
2018-03-20T15:15:06.051Z,10.9
2018-03-20T15:16:25.865Z,11
2018-03-20T15:17:45.683Z,11
2018-03-20T15:19:13.146Z,11
2018-03-20T15:20:33.004Z,10.5
2018-03-20T15:21:52.850Z,10.4
2018-03-20T15:23:25.304Z,10.7
2018-03-20T15:24:45.153Z,10.9
2018-03-20T15:26:05.003Z,11
2018-03-20T15:27:24.875Z,11.1
2018-03-20T15:28:44.693Z,10.9
2018-03-20T15:30:04.572Z,10.8
2018-03-20T15:31:26.945Z,11.2
2018-03-20T15:32:49.330Z,11.4
2018-03-20T15:34:09.172Z,9.8
2018-03-20T15:35:28.974Z,9.5
2018-03-20T15:36:53.828Z,9.6
2018-03-20T15:38:26.330Z,10.2
2018-03-20T15:39:48.665Z,9.8
2018-03-20T15:41:08.476Z,9.8
2018-03-20T15:42:33.414Z,9.8
2018-03-20T15:43:55.795Z,9.7
2018-03-20T15:45:15.612Z,10.6
2018-03-20T15:46:48.084Z,10.6
2018-03-20T15:48:07.929Z,10.5
2018-03-20T15:49:27.759Z,10.5
2018-03-20T15:50:47.578Z,10.5
2018-03-20T15:52:09.979Z,10.3
2018-03-20T15:53:34.885Z,10.3
2018-03-20T15:54:59.766Z,10.2
2018-03-20T15:56:19.578Z,10.2
2018-03-20T15:57:41.968Z,10.3
2018-03-20T15:59:01.806Z,10.6
2018-03-20T16:00:21.665Z,10.5
2018-03-20T16:01:46.573Z,10.3
2018-03-20T16:03:08.924Z,10.3
2018-03-20T16:04:31.324Z,10
2018-03-20T16:05:51.125Z,9.9
2018-03-20T16:07:10.931Z,9.8
2018-03-20T16:08:30.784Z,9.7
2018-03-20T16:09:50.586Z,9.6
2018-03-20T16:11:10.392Z,9.6
2018-03-20T16:12:30.190Z,9.6
2018-03-20T16:13:49.984Z,9.6
2018-03-20T16:15:09.789Z,9.6
2018-03-20T16:16:29.635Z,9.4
2018-03-20T16:17:51.981Z,9.3
2018-03-20T16:19:11.809Z,9.3
2018-03-20T16:20:31.689Z,9.3
2018-03-20T16:21:51.522Z,9.3
2018-03-20T16:23:11.389Z,9.4
2018-03-20T16:24:31.208Z,8.4
2018-03-20T16:25:53.530Z,8.6
2018-03-20T16:27:15.851Z,8.4
2018-03-20T16:28:40.768Z,8.6
2018-03-20T16:30:15.758Z,8.5
2018-03-20T16:31:35.556Z,9.4
2018-03-20T16:32:57.878Z,9.4
2018-03-20T16:34:17.704Z,9.5
2018-03-20T16:35:40.025Z,9.4
2018-03-20T16:37:02.355Z,7.4
2018-03-20T16:38:22.195Z,9.9
2018-03-20T16:39:44.601Z,10.2
2018-03-20T16:41:06.971Z,10.1
2018-03-20T16:42:26.789Z,9.9
2018-03-20T16:43:46.709Z,10.3
2018-03-20T16:45:06.601Z,10.1
2018-03-20T16:46:26.481Z,10
2018-03-20T16:47:46.321Z,10.4
2018-03-20T16:49:06.158Z,10.3
2018-03-20T16:50:25.989Z,10.3
2018-03-20T16:51:48.329Z,10.2
2018-03-20T16:53:10.722Z,10.1
2018-03-20T16:54:30.538Z,10
2018-03-20T16:55:50.371Z,10
2018-03-20T16:57:17.802Z,9.5
2018-03-20T16:58:37.633Z,9.8
2018-03-20T16:59:57.456Z,10
2018-03-20T17:01:19.801Z,10
2018-03-20T17:02:44.704Z,9.8
2018-03-20T17:04:09.570Z,9.7
2018-03-20T17:05:29.365Z,9.8
2018-03-20T17:06:54.212Z,9.6
2018-03-20T17:08:14.007Z,9.4
2018-03-20T17:09:36.396Z,9.6
2018-03-20T17:10:56.261Z,9.5
2018-03-20T17:12:16.155Z,9.5
2018-03-20T17:13:35.970Z,9.5
2018-03-20T17:14:55.771Z,9.3
2018-03-20T17:16:15.624Z,9
2018-03-20T17:17:37.945Z,8.9
2018-03-20T17:18:57.741Z,8.8
2018-03-20T17:20:25.132Z,8.9
2018-03-20T17:21:47.515Z,8.7
2018-03-20T17:23:14.914Z,8.7
2018-03-20T17:24:34.722Z,8.5
2018-03-20T17:25:54.519Z,8.5
2018-03-20T17:27:14.320Z,8.3
2018-03-20T17:28:36.683Z,8.3
2018-03-20T17:29:56.515Z,8.8
2018-03-20T17:31:23.893Z,8.8
2018-03-20T17:33:03.941Z,8.8
2018-03-20T17:34:23.728Z,8.7
2018-03-20T17:35:43.530Z,7.2
2018-03-20T17:37:03.368Z,7.4
2018-03-20T17:38:30.799Z,7.5
2018-03-20T17:39:50.637Z,7.3
2018-03-20T17:41:13.052Z,7.3
2018-03-20T17:42:32.862Z,6.9
2018-03-20T17:43:57.771Z,7
2018-03-20T17:45:17.612Z,7.3
2018-03-20T17:46:42.470Z,7.1
2018-03-20T17:48:04.823Z,6.8
2018-03-20T17:49:24.608Z,7.1
2018-03-20T17:50:44.402Z,7.1
2018-03-20T17:52:09.250Z,7.1
2018-03-20T17:53:36.661Z,7.3
2018-03-20T17:54:56.477Z,7.2
2018-03-20T17:56:16.329Z,7.1
2018-03-20T17:57:36.145Z,6.9
2018-03-20T17:58:55.971Z,7.2
2018-03-20T18:00:15.817Z,7.2
2018-03-20T18:01:38.178Z,6.9
2018-03-20T18:03:00.551Z,7.1
2018-03-20T18:04:22.925Z,7.1
2018-03-20T18:05:45.243Z,7
2018-03-20T18:07:05.074Z,7.1
2018-03-20T18:08:27.461Z,6.7
2018-03-20T18:09:49.825Z,6.7
2018-03-20T18:11:09.615Z,6.9
2018-03-20T18:12:29.413Z,6.4
2018-03-20T18:13:59.347Z,6.6
2018-03-20T18:15:21.690Z,6.6
2018-03-20T18:16:41.552Z,6.8
2018-03-20T18:18:03.876Z,6.9
2018-03-20T18:19:23.710Z,6.6
2018-03-20T18:20:51.144Z,8.3
2018-03-20T18:22:13.519Z,8.3
2018-03-20T18:23:38.386Z,8.2
2018-03-20T18:24:58.218Z,8.7
2018-03-20T18:26:18.007Z,8.9
2018-03-20T18:27:37.804Z,9.2
2018-03-20T18:28:57.640Z,8.9
2018-03-20T18:30:19.966Z,8.7
2018-03-20T18:31:42.295Z,9
2018-03-20T18:33:12.252Z,10.5
2018-03-20T18:34:32.081Z,10.6
2018-03-20T18:35:51.927Z,10.4
2018-03-20T18:37:14.270Z,10.4
2018-03-20T18:38:36.645Z,9.5
2018-03-20T18:39:56.502Z,9.8
2018-03-20T18:41:16.348Z,10.1
2018-03-20T18:42:43.724Z,9.5
2018-03-20T18:44:03.525Z,9.2
2018-03-20T18:45:23.337Z,10.6
2018-03-20T18:46:45.761Z,10.3
2018-03-20T18:48:10.660Z,10.7
2018-03-20T18:49:30.489Z,10.7
2018-03-20T18:50:55.377Z,10.3
2018-03-20T18:52:20.291Z,10.6
2018-03-20T18:53:40.117Z,10.3
2018-03-20T18:54:59.925Z,10
2018-03-20T18:56:22.262Z,10.1
2018-03-20T18:57:44.617Z,9.9
2018-03-20T18:59:04.409Z,9.6
2018-03-20T19:00:26.779Z,9.4